sensor_id;sensor_type;location;lat;lon;timestamp;pressure;altitude;pressure_sealevel;temperature;humidity
61961;BME280;47923;42.506;24.192;2024-01-30T00:00:20;97470.28;;;-5.91;79.68
61961;BME280;47923;42.506;24.192;2024-01-30T00:02:47;97484.81;;;-5.75;79.30
61961;BME280;47923;42.506;24.192;2024-01-30T00:05:14;97384.09;;;-6.55;79.17
61961;BME280;47923;42.506;24.192;2024-01-30T00:07:42;97456.16;;;-6.29;79.93
61961;BME280;47923;42.506;24.192;2024-01-30T00:10:12;97202.97;;;-7.89;79.03
61961;BME280;47923;42.506;24.192;2024-01-30T00:12:41;97475.97;;;-6.07;79.60
61961;BME280;47923;42.506;24.192;2024-01-30T00:15:06;97311.28;;;-7.27;79.81
61961;BME280;47923;42.506;24.192;2024-01-30T00:17:38;97362.66;;;-7.11;79.74
61961;BME280;47923;42.506;24.192;2024-01-30T00:20:04;97488.28;;;-6.41;79.81
61961;BME280;47923;42.506;24.192;2024-01-30T00:22:31;97157.00;;;-8.52;80.48
61961;BME280;47923;42.506;24.192;2024-01-30T00:24:59;97202.66;;;-8.27;80.65
61961;BME280;47923;42.506;24.192;2024-01-30T00:27:25;97500.66;;;-6.34;81.09
61961;BME280;47923;42.506;24.192;2024-01-30T00:30:01;97492.53;;;-6.40;81.70
61961;BME280;47923;42.506;24.192;2024-01-30T00:32:28;97479.81;;;-6.36;81.51
61961;BME280;47923;42.506;24.192;2024-01-30T00:35:00;97454.53;;;-6.44;81.71
61961;BME280;47923;42.506;24.192;2024-01-30T00:37:26;97327.25;;;-7.22;81.10
61961;BME280;47923;42.506;24.192;2024-01-30T00:39:56;97462.59;;;-6.58;81.26
61961;BME280;47923;42.506;24.192;2024-01-30T00:42:21;97439.50;;;-6.89;80.49
61961;BME280;47923;42.506;24.192;2024-01-30T00:44:49;97491.53;;;-6.58;81.55
61961;BME280;47923;42.506;24.192;2024-01-30T00:47:18;97498.00;;;-6.61;81.46
61961;BME280;47923;42.506;24.192;2024-01-30T00:49:43;97462.97;;;-6.81;82.18
61961;BME280;47923;42.506;24.192;2024-01-30T00:52:09;97488.28;;;-6.67;81.32
61961;BME280;47923;42.506;24.192;2024-01-30T00:54:36;97443.94;;;-6.90;81.79
61961;BME280;47923;42.506;24.192;2024-01-30T00:57:03;97437.22;;;-6.99;82.33
61961;BME280;47923;42.506;24.192;2024-01-30T00:59:29;97413.94;;;-7.22;82.28
61961;BME280;47923;42.506;24.192;2024-01-30T01:01:55;97256.72;;;-8.26;81.71
61961;BME280;47923;42.506;24.192;2024-01-30T01:04:21;97301.81;;;-7.96;82.58
61961;BME280;47923;42.506;24.192;2024-01-30T01:06:47;97494.16;;;-6.58;82.41
61961;BME280;47923;42.506;24.192;2024-01-30T01:09:13;97498.19;;;-6.62;83.04
61961;BME280;47923;42.506;24.192;2024-01-30T01:11:39;97477.28;;;-6.97;83.08
61961;BME280;47923;42.506;24.192;2024-01-30T01:14:04;97420.84;;;-7.14;83.21
61961;BME280;47923;42.506;24.192;2024-01-30T01:16:33;97414.19;;;-7.04;83.03
61961;BME280;47923;42.506;24.192;2024-01-30T01:19:00;96912.47;;;-10.08;83.50
61961;BME280;47923;42.506;24.192;2024-01-30T01:21:27;97479.19;;;-6.58;83.78
61961;BME280;47923;42.506;24.192;2024-01-30T01:23:52;97488.09;;;-6.59;83.48
61961;BME280;47923;42.506;24.192;2024-01-30T01:26:18;97489.09;;;-6.60;83.54
61961;BME280;47923;42.506;24.192;2024-01-30T01:28:44;97486.03;;;-6.70;83.29
61961;BME280;47923;42.506;24.192;2024-01-30T01:31:13;97249.66;;;-8.25;83.61
61961;BME280;47923;42.506;24.192;2024-01-30T01:33:40;97480.75;;;-6.77;83.59
61961;BME280;47923;42.506;24.192;2024-01-30T01:36:07;97489.88;;;-6.73;83.35
61961;BME280;47923;42.506;24.192;2024-01-30T01:38:33;97436.38;;;-7.13;82.63
61961;BME280;47923;42.506;24.192;2024-01-30T01:41:01;97417.00;;;-7.18;83.03
61961;BME280;47923;42.506;24.192;2024-01-30T01:43:28;97481.97;;;-6.79;83.00
61961;BME280;47923;42.506;24.192;2024-01-30T01:45:55;97488.44;;;-6.82;83.06
61961;BME280;47923;42.506;24.192;2024-01-30T01:48:22;97329.75;;;-7.75;83.15
61961;BME280;47923;42.506;24.192;2024-01-30T01:50:47;97241.97;;;-8.33;82.78
61961;BME280;47923;42.506;24.192;2024-01-30T01:53:18;97506.63;;;-6.87;82.89
61961;BME280;47923;42.506;24.192;2024-01-30T01:55:45;97305.19;;;-8.09;82.71
61961;BME280;47923;42.506;24.192;2024-01-30T01:58:19;97495.69;;;-6.97;82.35
61961;BME280;47923;42.506;24.192;2024-01-30T02:00:46;97484.97;;;-6.96;83.62
61961;BME280;47923;42.506;24.192;2024-01-30T02:03:17;97452.59;;;-7.03;83.50
61961;BME280;47923;42.506;24.192;2024-01-30T02:05:45;97454.81;;;-7.06;82.72
61961;BME280;47923;42.506;24.192;2024-01-30T02:08:11;97302.81;;;-8.03;81.87
61961;BME280;47923;42.506;24.192;2024-01-30T02:10:42;97490.81;;;-6.93;83.01
61961;BME280;47923;42.506;24.192;2024-01-30T02:13:08;97493.69;;;-6.88;82.86
61961;BME280;47923;42.506;24.192;2024-01-30T02:15:34;97489.81;;;-6.92;82.84
61961;BME280;47923;42.506;24.192;2024-01-30T02:18:01;97496.84;;;-7.06;82.70
61961;BME280;47923;42.506;24.192;2024-01-30T02:20:29;97486.72;;;-7.16;82.69
61961;BME280;47923;42.506;24.192;2024-01-30T02:22:59;97138.78;;;-9.50;82.97
61961;BME280;47923;42.506;24.192;2024-01-30T02:25:35;97414.22;;;-7.58;83.76
61961;BME280;47923;42.506;24.192;2024-01-30T02:28:04;97402.53;;;-7.56;83.41
61961;BME280;47923;42.506;24.192;2024-01-30T02:30:30;97481.47;;;-7.16;83.57
61961;BME280;47923;42.506;24.192;2024-01-30T02:32:55;97485.25;;;-7.25;83.32
61961;BME280;47923;42.506;24.192;2024-01-30T02:35:21;97494.94;;;-7.32;83.68
61961;BME280;47923;42.506;24.192;2024-01-30T02:37:49;97486.41;;;-7.41;83.75
61961;BME280;47923;42.506;24.192;2024-01-30T02:40:16;97425.66;;;-7.72;83.61
61961;BME280;47923;42.506;24.192;2024-01-30T02:42:41;97395.91;;;-7.86;84.37
61961;BME280;47923;42.506;24.192;2024-01-30T02:45:07;97423.19;;;-7.81;84.33
61961;BME280;47923;42.506;24.192;2024-01-30T02:47:35;97476.13;;;-7.29;84.54
61961;BME280;47923;42.506;24.192;2024-01-30T02:50:01;97443.56;;;-7.48;84.47
61961;BME280;47923;42.506;24.192;2024-01-30T02:52:27;97477.94;;;-7.36;84.69
61961;BME280;47923;42.506;24.192;2024-01-30T02:54:56;97356.44;;;-8.13;84.58
61961;BME280;47923;42.506;24.192;2024-01-30T02:57:30;97167.31;;;-9.27;84.08
61961;BME280;47923;42.506;24.192;2024-01-30T03:00:00;97469.06;;;-7.29;84.70
61961;BME280;47923;42.506;24.192;2024-01-30T03:02:28;97472.09;;;-7.32;84.57
61961;BME280;47923;42.506;24.192;2024-01-30T03:04:56;97476.94;;;-7.29;85.22
61961;BME280;47923;42.506;24.192;2024-01-30T03:07:23;97478.56;;;-7.28;85.81
61961;BME280;47923;42.506;24.192;2024-01-30T03:09:50;97184.03;;;-9.28;85.12
61961;BME280;47923;42.506;24.192;2024-01-30T03:12:20;97457.47;;;-7.54;85.52
61961;BME280;47923;42.506;24.192;2024-01-30T03:14:47;97453.25;;;-7.48;84.88
61961;BME280;47923;42.506;24.192;2024-01-30T03:17:15;97478.72;;;-7.42;85.14
61961;BME280;47923;42.506;24.192;2024-01-30T03:19:44;97357.59;;;-8.22;85.45
61961;BME280;47923;42.506;24.192;2024-01-30T03:22:18;97233.56;;;-8.98;85.13
61961;BME280;47923;42.506;24.192;2024-01-30T03:24:44;97445.47;;;-7.70;85.10
61961;BME280;47923;42.506;24.192;2024-01-30T03:27:10;97476.03;;;-7.56;84.96
61961;BME280;47923;42.506;24.192;2024-01-30T03:29:43;97478.84;;;-7.57;85.27
61961;BME280;47923;42.506;24.192;2024-01-30T03:32:11;97261.56;;;-8.99;84.51
61961;BME280;47923;42.506;24.192;2024-01-30T03:34:40;97336.25;;;-8.81;84.11
61961;BME280;47923;42.506;24.192;2024-01-30T03:37:06;97397.75;;;-8.21;84.24
61961;BME280;47923;42.506;24.192;2024-01-30T03:39:35;97286.50;;;-8.75;84.79
61961;BME280;47923;42.506;24.192;2024-01-30T03:42:05;97477.00;;;-7.57;84.62
61961;BME280;47923;42.506;24.192;2024-01-30T03:44:33;97476.00;;;-7.62;84.71
61961;BME280;47923;42.506;24.192;2024-01-30T03:46:58;97392.16;;;-8.12;85.10
61961;BME280;47923;42.506;24.192;2024-01-30T03:49:25;97476.81;;;-7.62;85.33
61961;BME280;47923;42.506;24.192;2024-01-30T03:51:51;97448.78;;;-7.89;85.65
61961;BME280;47923;42.506;24.192;2024-01-30T03:54:18;97222.88;;;-9.31;84.54
61961;BME280;47923;42.506;24.192;2024-01-30T03:56:44;97497.44;;;-7.87;85.36
61961;BME280;47923;42.506;24.192;2024-01-30T03:59:18;97493.47;;;-7.76;85.70
61961;BME280;47923;42.506;24.192;2024-01-30T04:01:50;97410.47;;;-8.18;85.76
61961;BME280;47923;42.506;24.192;2024-01-30T04:04:20;97479.63;;;-7.57;85.60
61961;BME280;47923;42.506;24.192;2024-01-30T04:06:48;97193.41;;;-9.40;84.98
61961;BME280;47923;42.506;24.192;2024-01-30T04:09:14;97419.44;;;-8.06;84.56
61961;BME280;47923;42.506;24.192;2024-01-30T04:11:54;97342.03;;;-8.65;84.64
61961;BME280;47923;42.506;24.192;2024-01-30T04:14:20;97384.47;;;-8.48;84.42
61961;BME280;47923;42.506;24.192;2024-01-30T04:16:46;97108.47;;;-10.43;84.35
61961;BME280;47923;42.506;24.192;2024-01-30T04:19:12;97335.28;;;-8.80;84.92
61961;BME280;47923;42.506;24.192;2024-01-30T04:21:44;96814.19;;;-12.13;84.16
61961;BME280;47923;42.506;24.192;2024-01-30T04:24:10;97211.91;;;-9.63;84.96
61961;BME280;47923;42.506;24.192;2024-01-30T04:26:36;97481.47;;;-7.92;85.25
61961;BME280;47923;42.506;24.192;2024-01-30T04:29:04;97495.22;;;-7.90;84.87
61961;BME280;47923;42.506;24.192;2024-01-30T04:31:30;97433.59;;;-8.35;84.95
61961;BME280;47923;42.506;24.192;2024-01-30T04:33:55;97494.75;;;-8.00;84.60
61961;BME280;47923;42.506;24.192;2024-01-30T04:36:21;97498.31;;;-8.08;84.28
61961;BME280;47923;42.506;24.192;2024-01-30T04:38:51;97504.50;;;-8.15;84.56
61961;BME280;47923;42.506;24.192;2024-01-30T04:41:20;97495.00;;;-8.16;85.03
61961;BME280;47923;42.506;24.192;2024-01-30T04:43:45;97497.47;;;-8.15;84.77
61961;BME280;47923;42.506;24.192;2024-01-30T04:46:11;97506.69;;;-8.19;84.54
61961;BME280;47923;42.506;24.192;2024-01-30T04:48:37;97505.13;;;-8.13;85.39
61961;BME280;47923;42.506;24.192;2024-01-30T04:51:04;97477.09;;;-8.41;84.41
61961;BME280;47923;42.506;24.192;2024-01-30T04:53:32;96995.88;;;-11.27;84.50
61961;BME280;47923;42.506;24.192;2024-01-30T04:56:00;97485.91;;;-8.20;84.97
61961;BME280;47923;42.506;24.192;2024-01-30T04:58:26;97344.72;;;-9.29;84.89
61961;BME280;47923;42.506;24.192;2024-01-30T05:00:54;97433.25;;;-8.75;84.79
61961;BME280;47923;42.506;24.192;2024-01-30T05:03:21;97238.38;;;-9.94;85.57
61961;BME280;47923;42.506;24.192;2024-01-30T05:05:48;97407.75;;;-8.87;84.87
61961;BME280;47923;42.506;24.192;2024-01-30T05:08:16;97468.63;;;-8.43;85.64
61961;BME280;47923;42.506;24.192;2024-01-30T05:10:42;97470.03;;;-8.40;85.62
61961;BME280;47923;42.506;24.192;2024-01-30T05:13:07;97466.28;;;-8.52;85.57
61961;BME280;47923;42.506;24.192;2024-01-30T05:15:33;97116.91;;;-10.77;85.41
61961;BME280;47923;42.506;24.192;2024-01-30T05:17:59;97505.31;;;-8.15;85.32
61961;BME280;47923;42.506;24.192;2024-01-30T05:20:26;97528.28;;;-8.17;85.38
61961;BME280;47923;42.506;24.192;2024-01-30T05:22:55;97360.75;;;-9.17;84.95
61961;BME280;47923;42.506;24.192;2024-01-30T05:25:21;96858.25;;;-12.33;85.15
61961;BME280;47923;42.506;24.192;2024-01-30T05:27:47;97513.88;;;-8.06;85.93
61961;BME280;47923;42.506;24.192;2024-01-30T05:30:17;97409.72;;;-8.68;84.89
61961;BME280;47923;42.506;24.192;2024-01-30T05:32:44;97477.38;;;-8.29;84.81
61961;BME280;47923;42.506;24.192;2024-01-30T05:35:10;97454.06;;;-8.45;85.25
61961;BME280;47923;42.506;24.192;2024-01-30T05:37:37;97515.91;;;-8.01;84.84
61961;BME280;47923;42.506;24.192;2024-01-30T05:40:04;97258.06;;;-9.55;84.23
61961;BME280;47923;42.506;24.192;2024-01-30T05:42:30;97329.75;;;-9.13;83.36
61961;BME280;47923;42.506;24.192;2024-01-30T05:44:56;97522.81;;;-7.94;83.40
61961;BME280;47923;42.506;24.192;2024-01-30T05:47:24;97517.56;;;-7.94;83.28
61961;BME280;47923;42.506;24.192;2024-01-30T05:49:50;97449.50;;;-8.37;83.01
61961;BME280;47923;42.506;24.192;2024-01-30T05:52:15;97478.75;;;-8.33;84.03
61961;BME280;47923;42.506;24.192;2024-01-30T05:54:41;97462.06;;;-8.25;84.11
61961;BME280;47923;42.506;24.192;2024-01-30T05:57:07;97282.56;;;-9.20;83.25
61961;BME280;47923;42.506;24.192;2024-01-30T05:59:33;97518.81;;;-7.62;83.15
61961;BME280;47923;42.506;24.192;2024-01-30T06:01:58;97524.31;;;-7.50;82.60
61961;BME280;47923;42.506;24.192;2024-01-30T06:04:28;97528.19;;;-7.46;82.38
61961;BME280;47923;42.506;24.192;2024-01-30T06:06:53;97526.22;;;-7.37;82.44
61961;BME280;47923;42.506;24.192;2024-01-30T06:09:19;97236.34;;;-9.06;81.77
61961;BME280;47923;42.506;24.192;2024-01-30T06:11:44;97420.78;;;-7.82;82.50
61961;BME280;47923;42.506;24.192;2024-01-30T06:14:10;97516.06;;;-6.99;82.04
61961;BME280;47923;42.506;24.192;2024-01-30T06:16:36;97295.44;;;-8.28;81.61
61961;BME280;47923;42.506;24.192;2024-01-30T06:19:05;97521.81;;;-6.76;80.86
61961;BME280;47923;42.506;24.192;2024-01-30T06:21:31;97430.88;;;-7.31;81.17
61961;BME280;47923;42.506;24.192;2024-01-30T06:23:57;97427.91;;;-7.15;80.39
61961;BME280;47923;42.506;24.192;2024-01-30T06:26:23;97466.41;;;-6.81;79.77
61961;BME280;47923;42.506;24.192;2024-01-30T06:28:51;97191.13;;;-8.46;79.50
61961;BME280;47923;42.506;24.192;2024-01-30T06:31:18;97528.59;;;-6.20;78.64
61961;BME280;47923;42.506;24.192;2024-01-30T06:33:51;97452.28;;;-6.60;78.71
61961;BME280;47923;42.506;24.192;2024-01-30T06:36:22;97545.00;;;-5.92;78.70
61961;BME280;47923;42.506;24.192;2024-01-30T06:38:47;97419.53;;;-6.51;77.48
61961;BME280;47923;42.506;24.192;2024-01-30T06:41:22;97498.38;;;-5.78;77.18
61961;BME280;47923;42.506;24.192;2024-01-30T06:43:50;97514.38;;;-5.73;76.15
61961;BME280;47923;42.506;24.192;2024-01-30T06:46:19;97546.16;;;-5.41;75.50
61961;BME280;47923;42.506;24.192;2024-01-30T06:48:45;97325.66;;;-6.83;74.81
61961;BME280;47923;42.506;24.192;2024-01-30T06:51:16;97491.66;;;-5.61;74.71
61961;BME280;47923;42.506;24.192;2024-01-30T06:53:46;97464.16;;;-5.85;74.15
61961;BME280;47923;42.506;24.192;2024-01-30T06:56:12;97448.50;;;-5.60;74.06
61961;BME280;47923;42.506;24.192;2024-01-30T06:58:38;97542.38;;;-5.01;73.77
61961;BME280;47923;42.506;24.192;2024-01-30T07:01:11;97548.16;;;-4.79;73.18
61961;BME280;47923;42.506;24.192;2024-01-30T07:03:37;97480.78;;;-5.06;72.06
61961;BME280;47923;42.506;24.192;2024-01-30T07:06:04;97473.16;;;-4.83;71.58
61961;BME280;47923;42.506;24.192;2024-01-30T07:08:29;97162.81;;;-6.45;70.21
61961;BME280;47923;42.506;24.192;2024-01-30T07:10:55;97551.50;;;-3.64;69.52
61961;BME280;47923;42.506;24.192;2024-01-30T07:13:22;97547.75;;;-2.16;67.05
61961;BME280;47923;42.506;24.192;2024-01-30T07:15:48;97490.84;;;0.23;56.83
61961;BME280;47923;42.506;24.192;2024-01-30T07:18:15;97536.00;;;2.79;48.32
61961;BME280;47923;42.506;24.192;2024-01-30T07:20:40;97306.69;;;1.67;45.23
61961;BME280;47923;42.506;24.192;2024-01-30T07:23:12;97531.88;;;1.97;45.87
61961;BME280;47923;42.506;24.192;2024-01-30T07:25:40;97428.78;;;0.34;48.64
61961;BME280;47923;42.506;24.192;2024-01-30T07:28:07;97541.91;;;1.36;48.39
61961;BME280;47923;42.506;24.192;2024-01-30T07:30:34;97325.78;;;0.24;47.53
61961;BME280;47923;42.506;24.192;2024-01-30T07:32:59;97482.25;;;1.15;46.92
61961;BME280;47923;42.506;24.192;2024-01-30T07:35:24;97487.47;;;1.05;48.06
61961;BME280;47923;42.506;24.192;2024-01-30T07:37:50;97366.53;;;0.96;46.63
61961;BME280;47923;42.506;24.192;2024-01-30T07:40:21;97547.50;;;4.71;42.11
61961;BME280;47923;42.506;24.192;2024-01-30T07:42:48;97525.00;;;6.51;37.98
61961;BME280;47923;42.506;24.192;2024-01-30T07:45:13;97422.19;;;6.45;36.27
61961;BME280;47923;42.506;24.192;2024-01-30T07:47:39;97262.34;;;6.10;35.42
61961;BME280;47923;42.506;24.192;2024-01-30T07:50:05;97505.94;;;8.28;33.32
61961;BME280;47923;42.506;24.192;2024-01-30T07:52:32;97515.59;;;8.29;32.96
61961;BME280;47923;42.506;24.192;2024-01-30T07:54:57;97491.03;;;8.36;32.84
61961;BME280;47923;42.506;24.192;2024-01-30T07:57:23;97320.91;;;6.51;34.05
61961;BME280;47923;42.506;24.192;2024-01-30T07:59:50;97512.31;;;8.38;33.17
61961;BME280;47923;42.506;24.192;2024-01-30T08:02:19;97498.28;;;9.14;32.11
61961;BME280;47923;42.506;24.192;2024-01-30T08:04:45;97518.53;;;9.67;30.81
61961;BME280;47923;42.506;24.192;2024-01-30T08:07:14;97518.22;;;9.00;31.42
61961;BME280;47923;42.506;24.192;2024-01-30T08:12:18;97415.38;;;10.29;28.78
61961;BME280;47923;42.506;24.192;2024-01-30T08:14:47;97509.69;;;10.92;28.41
61961;BME280;47923;42.506;24.192;2024-01-30T08:17:13;97366.72;;;10.51;27.53
61961;BME280;47923;42.506;24.192;2024-01-30T08:19:38;97491.13;;;12.13;27.48
61961;BME280;47923;42.506;24.192;2024-01-30T08:22:04;97367.28;;;12.78;26.76
61961;BME280;47923;42.506;24.192;2024-01-30T08:24:32;97290.66;;;12.81;26.38
61961;BME280;47923;42.506;24.192;2024-01-30T08:27:07;97442.78;;;12.50;25.88
61961;BME280;47923;42.506;24.192;2024-01-30T08:29:37;97500.19;;;12.09;27.20
61961;BME280;47923;42.506;24.192;2024-01-30T08:32:06;97497.56;;;11.12;29.52
61961;BME280;47923;42.506;24.192;2024-01-30T08:34:32;97399.13;;;9.11;30.23
61961;BME280;47923;42.506;24.192;2024-01-30T08:36:58;97453.59;;;10.00;30.77
61961;BME280;47923;42.506;24.192;2024-01-30T08:39:24;97500.19;;;9.28;31.66
61961;BME280;47923;42.506;24.192;2024-01-30T08:41:50;97176.03;;;5.74;33.61
61961;BME280;47923;42.506;24.192;2024-01-30T08:44:19;97474.63;;;7.38;34.68
61961;BME280;47923;42.506;24.192;2024-01-30T08:46:45;97505.34;;;8.50;34.83
61961;BME280;47923;42.506;24.192;2024-01-30T08:49:13;97471.09;;;7.19;34.19
61961;BME280;47923;42.506;24.192;2024-01-30T08:51:39;97500.22;;;7.12;35.79
61961;BME280;47923;42.506;24.192;2024-01-30T08:54:06;97355.63;;;8.17;33.18
61961;BME280;47923;42.506;24.192;2024-01-30T08:56:33;97489.19;;;10.02;32.73
61961;BME280;47923;42.506;24.192;2024-01-30T08:58:59;97447.94;;;10.86;30.59
61961;BME280;47923;42.506;24.192;2024-01-30T09:01:28;97300.94;;;9.71;29.10
61961;BME280;47923;42.506;24.192;2024-01-30T09:03:54;97482.38;;;11.42;29.38
61961;BME280;47923;42.506;24.192;2024-01-30T09:06:20;97454.09;;;12.52;27.54
61961;BME280;47923;42.506;24.192;2024-01-30T09:08:47;97475.59;;;13.60;26.96
61961;BME280;47923;42.506;24.192;2024-01-30T09:11:15;97483.69;;;13.39;25.16
61961;BME280;47923;42.506;24.192;2024-01-30T09:13:41;97426.69;;;12.92;25.53
61961;BME280;47923;42.506;24.192;2024-01-30T09:16:07;97481.94;;;12.87;26.25
61961;BME280;47923;42.506;24.192;2024-01-30T09:18:35;97177.69;;;9.35;27.02
61961;BME280;47923;42.506;24.192;2024-01-30T09:21:07;97141.94;;;11.18;27.63
61961;BME280;47923;42.506;24.192;2024-01-30T09:23:33;97472.41;;;12.72;24.92
61961;BME280;47923;42.506;24.192;2024-01-30T09:26:01;97405.69;;;11.81;25.51
61961;BME280;47923;42.506;24.192;2024-01-30T09:28:26;97463.34;;;12.60;26.92
61961;BME280;47923;42.506;24.192;2024-01-30T09:30:54;97464.63;;;12.54;25.21
61961;BME280;47923;42.506;24.192;2024-01-30T09:33:24;97401.34;;;12.50;26.25
61961;BME280;47923;42.506;24.192;2024-01-30T09:35:50;97448.75;;;13.37;25.22
61961;BME280;47923;42.506;24.192;2024-01-30T09:38:19;97407.22;;;12.52;25.24
61961;BME280;47923;42.506;24.192;2024-01-30T09:40:51;97447.06;;;13.07;24.38
61961;BME280;47923;42.506;24.192;2024-01-30T09:43:23;97440.31;;;13.60;24.14
61961;BME280;47923;42.506;24.192;2024-01-30T09:45:53;97444.91;;;12.27;25.57
61961;BME280;47923;42.506;24.192;2024-01-30T09:48:22;97419.59;;;11.23;25.52
61961;BME280;47923;42.506;24.192;2024-01-30T09:50:50;97230.25;;;11.31;25.72
61961;BME280;47923;42.506;24.192;2024-01-30T09:53:21;97380.06;;;12.05;25.08
61961;BME280;47923;42.506;24.192;2024-01-30T09:55:50;97434.97;;;12.57;25.21
61961;BME280;47923;42.506;24.192;2024-01-30T09:58:16;97426.66;;;13.89;23.81
61961;BME280;47923;42.506;24.192;2024-01-30T10:00:42;97378.25;;;12.26;24.65
61961;BME280;47923;42.506;24.192;2024-01-30T10:03:08;97391.09;;;13.61;24.46
61961;BME280;47923;42.506;24.192;2024-01-30T10:05:40;97235.81;;;12.76;23.65
61961;BME280;47923;42.506;24.192;2024-01-30T10:08:06;97358.41;;;13.91;24.35
61961;BME280;47923;42.506;24.192;2024-01-30T10:10:35;97420.47;;;15.12;22.68
61961;BME280;47923;42.506;24.192;2024-01-30T10:13:04;97301.88;;;14.62;23.00
61961;BME280;47923;42.506;24.192;2024-01-30T10:15:30;97410.03;;;15.39;22.00
61961;BME280;47923;42.506;24.192;2024-01-30T10:17:56;97408.41;;;15.74;21.64
61961;BME280;47923;42.506;24.192;2024-01-30T10:20:21;97416.41;;;15.06;21.72
61961;BME280;47923;42.506;24.192;2024-01-30T10:22:48;97329.53;;;14.19;23.41
61961;BME280;47923;42.506;24.192;2024-01-30T10:25:17;97388.50;;;15.09;23.02
61961;BME280;47923;42.506;24.192;2024-01-30T10:27:53;97347.72;;;14.06;23.41
61961;BME280;47923;42.506;24.192;2024-01-30T10:30:21;97372.94;;;12.94;24.58
61961;BME280;47923;42.506;24.192;2024-01-30T10:32:55;97401.81;;;12.90;25.51
61961;BME280;47923;42.506;24.192;2024-01-30T10:35:24;97399.69;;;12.66;25.50
61961;BME280;47923;42.506;24.192;2024-01-30T10:37:52;97408.72;;;12.87;24.79
61961;BME280;47923;42.506;24.192;2024-01-30T10:40:21;97397.69;;;12.84;24.26
61961;BME280;47923;42.506;24.192;2024-01-30T10:42:56;97348.41;;;12.82;24.85
61961;BME280;47923;42.506;24.192;2024-01-30T10:45:22;97370.78;;;13.08;24.12
61961;BME280;47923;42.506;24.192;2024-01-30T10:47:55;97349.38;;;13.36;23.41
61961;BME280;47923;42.506;24.192;2024-01-30T10:50:26;97285.84;;;12.87;23.93
61961;BME280;47923;42.506;24.192;2024-01-30T10:52:56;97335.63;;;13.41;23.82
61961;BME280;47923;42.506;24.192;2024-01-30T10:55:24;97340.09;;;13.67;23.02
61961;BME280;47923;42.506;24.192;2024-01-30T10:57:53;97315.81;;;13.20;23.56
61961;BME280;47923;42.506;24.192;2024-01-30T11:00:19;97244.75;;;12.08;24.18
61961;BME280;47923;42.506;24.192;2024-01-30T11:02:52;97384.63;;;13.15;25.69
61961;BME280;47923;42.506;24.192;2024-01-30T11:05:27;97385.06;;;13.76;23.88
61961;BME280;47923;42.506;24.192;2024-01-30T11:07:56;97359.09;;;12.40;24.97
61961;BME280;47923;42.506;24.192;2024-01-30T11:10:25;97168.97;;;10.66;25.31
61961;BME280;47923;42.506;24.192;2024-01-30T11:12:52;97357.09;;;11.68;26.85
61961;BME280;47923;42.506;24.192;2024-01-30T11:15:18;97348.28;;;10.53;26.90
61961;BME280;47923;42.506;24.192;2024-01-30T11:17:54;97384.28;;;9.73;28.89
61961;BME280;47923;42.506;24.192;2024-01-30T11:20:26;97378.75;;;10.45;28.87
61961;BME280;47923;42.506;24.192;2024-01-30T11:22:55;97345.88;;;9.98;28.19
61961;BME280;47923;42.506;24.192;2024-01-30T11:25:22;97376.00;;;10.36;28.35
61961;BME280;47923;42.506;24.192;2024-01-30T11:27:53;97374.66;;;10.56;27.13
61961;BME280;47923;42.506;24.192;2024-01-30T11:30:27;97322.84;;;11.20;26.95
61961;BME280;47923;42.506;24.192;2024-01-30T11:33:08;97354.88;;;11.96;25.90
61961;BME280;47923;42.506;24.192;2024-01-30T11:35:44;97332.41;;;11.78;25.29
61961;BME280;47923;42.506;24.192;2024-01-30T11:38:28;97354.25;;;11.55;25.88
61961;BME280;47923;42.506;24.192;2024-01-30T11:40:57;97098.50;;;10.28;26.10
61961;BME280;47923;42.506;24.192;2024-01-30T11:43:26;97347.66;;;12.72;25.33
61961;BME280;47923;42.506;24.192;2024-01-30T11:45:52;97292.72;;;12.84;24.60
61961;BME280;47923;42.506;24.192;2024-01-30T11:48:18;97316.66;;;12.82;24.55
61961;BME280;47923;42.506;24.192;2024-01-30T11:50:43;97240.09;;;12.17;24.86
61961;BME280;47923;42.506;24.192;2024-01-30T11:53:12;97236.38;;;11.84;25.15
61961;BME280;47923;42.506;24.192;2024-01-30T11:55:38;97267.75;;;12.32;25.23
61961;BME280;47923;42.506;24.192;2024-01-30T11:58:05;97326.34;;;12.07;25.55
61961;BME280;47923;42.506;24.192;2024-01-30T12:00:31;97144.94;;;10.39;25.74
61961;BME280;47923;42.506;24.192;2024-01-30T12:02:58;96954.88;;;8.46;26.87
61961;BME280;47923;42.506;24.192;2024-01-30T12:05:27;97148.81;;;10.07;27.75
61961;BME280;47923;42.506;24.192;2024-01-30T12:07:53;97150.16;;;9.87;27.40
61961;BME280;47923;42.506;24.192;2024-01-30T12:10:21;97274.91;;;10.29;27.66
61961;BME280;47923;42.506;24.192;2024-01-30T12:12:48;97297.91;;;9.95;28.88
61961;BME280;47923;42.506;24.192;2024-01-30T12:15:15;97134.56;;;8.91;29.64
61961;BME280;47923;42.506;24.192;2024-01-30T12:17:43;97181.69;;;8.93;29.62
61961;BME280;47923;42.506;24.192;2024-01-30T12:20:13;97295.03;;;9.47;30.55
61961;BME280;47923;42.506;24.192;2024-01-30T12:25:17;97221.69;;;7.95;30.19
61961;BME280;47923;42.506;24.192;2024-01-30T12:27:45;97268.53;;;7.94;30.90
61961;BME280;47923;42.506;24.192;2024-01-30T12:30:13;97253.97;;;7.81;31.53
61961;BME280;47923;42.506;24.192;2024-01-30T12:32:50;97288.38;;;7.98;31.16
61961;BME280;47923;42.506;24.192;2024-01-30T12:35:17;97290.47;;;7.87;31.21
61961;BME280;47923;42.506;24.192;2024-01-30T12:37:44;97286.66;;;7.56;31.88
61961;BME280;47923;42.506;24.192;2024-01-30T12:40:11;97220.25;;;7.05;31.86
61961;BME280;47923;42.506;24.192;2024-01-30T12:42:38;97284.09;;;7.32;32.45
61961;BME280;47923;42.506;24.192;2024-01-30T12:45:05;97047.91;;;5.47;32.73
61961;BME280;47923;42.506;24.192;2024-01-30T12:47:33;97095.84;;;5.72;32.92
61961;BME280;47923;42.506;24.192;2024-01-30T12:49:58;97222.06;;;6.53;33.09
61961;BME280;47923;42.506;24.192;2024-01-30T12:52:27;97180.19;;;6.52;33.31
61961;BME280;47923;42.506;24.192;2024-01-30T12:54:54;97023.97;;;5.08;32.89
61961;BME280;47923;42.506;24.192;2024-01-30T12:57:22;96737.41;;;3.16;33.27
61961;BME280;47923;42.506;24.192;2024-01-30T12:59:50;97160.31;;;5.86;33.49